Time;durP1;ratioP1;P1;durP2;ratioP2;P2;SDS_P1;SDS_P2;PMS_P1;PMS_P2;Temp;Humidity;BMP_temperature;BMP_pressure;BME280_temperature;BME280_humidity;BME280_pressure;Samples;Min_cycle;Max_cycle;Signal;HPM_P1;HPM_P2
2023/08/08 00:00:33;;;;;;;11.10;2.60;;;;;;;17.74;100.00;101439.19;5028715;28;20079;-64
2023/08/08 00:02:59;;;;;;;13.38;3.30;;;;;;;17.73;100.00;101449.00;5028201;28;20025;-62
2023/08/08 00:05:24;;;;;;;15.45;3.10;;;;;;;17.76;100.00;101447.97;5028472;28;20029;-61
2023/08/08 00:07:49;;;;;;;16.88;3.35;;;;;;;17.83;100.00;101449.38;5028427;28;20044;-61
2023/08/08 00:10:15;;;;;;;8.45;2.80;;;;;;;17.84;100.00;101445.75;5027340;28;20086;-63
2023/08/08 00:12:40;;;;;;;14.15;3.28;;;;;;;17.82;100.00;101447.63;5027035;28;20040;-62
2023/08/08 00:15:06;;;;;;;12.20;3.45;;;;;;;17.82;100.00;101447.63;5028225;28;20482;-63
2023/08/08 00:17:31;;;;;;;15.25;3.30;;;;;;;17.71;100.00;101439.38;5027572;28;20382;-64
2023/08/08 00:19:58;;;;;;;15.27;3.63;;;;;;;17.79;100.00;101445.16;5028437;28;20049;-62
2023/08/08 00:22:23;;;;;;;14.45;2.95;;;;;;;17.82;100.00;101436.97;5027189;28;20079;-64
2023/08/08 00:24:48;;;;;;;16.38;3.35;;;;;;;17.80;100.00;101445.06;5027289;28;20106;-64
2023/08/08 00:27:14;;;;;;;17.27;2.80;;;;;;;17.76;100.00;101440.81;5028476;28;20025;-64
2023/08/08 00:29:39;;;;;;;20.50;3.42;;;;;;;17.76;100.00;101442.66;5027494;28;20032;-63
2023/08/08 00:32:05;;;;;;;13.45;3.00;;;;;;;17.77;100.00;101444.38;5027338;28;20033;-63
2023/08/08 00:34:30;;;;;;;16.35;3.33;;;;;;;17.73;100.00;101442.81;5027545;28;20112;-64
2023/08/08 00:36:55;;;;;;;12.95;2.58;;;;;;;17.72;100.00;101438.41;5027216;28;20071;-64
2023/08/08 00:39:21;;;;;;;10.88;2.92;;;;;;;17.67;100.00;101442.19;5026594;28;20048;-64
2023/08/08 00:41:46;;;;;;;9.55;3.47;;;;;;;17.67;100.00;101436.88;5027427;28;20018;-64
2023/08/08 00:44:11;;;;;;;13.15;3.65;;;;;;;17.64;100.00;101441.53;5026721;28;20163;-64
2023/08/08 00:46:37;;;;;;;13.18;2.80;;;;;;;17.64;100.00;101439.69;5027624;28;20037;-65
2023/08/08 00:49:02;;;;;;;13.95;2.95;;;;;;;17.57;100.00;101437.47;5026592;28;20410;-63
2023/08/08 00:51:28;;;;;;;13.48;3.50;;;;;;;17.50;100.00;101439.59;5026065;28;20022;-64
2023/08/08 00:53:54;;;;;;;12.60;2.60;;;;;;;17.44;100.00;101432.78;5027550;28;20033;-63
2023/08/08 00:56:19;;;;;;;9.43;2.85;;;;;;;17.37;100.00;101426.91;5027659;28;20028;-62
2023/08/08 00:58:50;;;;;;;10.18;3.05;;;;;;;17.35;100.00;101430.63;5025322;28;20029;-63
2023/08/08 01:01:15;;;;;;;11.85;3.35;;;;;;;17.22;100.00;101428.59;5028049;28;20025;-64
2023/08/08 01:06:33;;;;;;;7.97;2.40;;;;;;;17.15;100.00;101427.19;4990828;26;20045;-63
2023/08/08 01:09:04;;;;;;;5.57;1.90;;;;;;;17.17;100.00;101428.88;5022702;28;20568;-63
2023/08/08 01:11:31;;;;;;;5.15;2.30;;;;;;;17.17;100.00;101428.88;5006336;28;20084;-64
2023/08/08 01:13:57;;;;;;;3.45;1.83;;;;;;;17.21;100.00;101432.22;5007000;28;20041;-64
2023/08/08 01:16:23;;;;;;;5.22;2.33;;;;;;;17.19;100.00;101431.44;5008201;28;20042;-57
2023/08/08 01:18:49;;;;;;;6.07;1.85;;;;;;;17.17;100.00;101426.19;5028259;28;20060;-59
2023/08/08 01:21:15;;;;;;;2.72;1.50;;;;;;;17.15;100.00;101428.06;5031784;28;20026;-65
2023/08/08 01:23:45;;;;;;;5.20;1.80;;;;;;;17.14;100.00;101434.34;5031629;28;20025;-64
2023/08/08 01:26:11;;;;;;;5.90;1.80;;;;;;;17.06;100.00;101428.50;5029942;28;20096;-65
2023/08/08 01:28:36;;;;;;;7.75;1.85;;;;;;;16.97;100.00;101431.66;5029593;28;20469;-65
2023/08/08 01:31:02;;;;;;;5.65;2.17;;;;;;;16.90;100.00;101428.44;5031548;28;20021;-65
2023/08/08 01:33:27;;;;;;;3.17;1.70;;;;;;;16.90;100.00;101426.66;5031062;28;20021;-63
2023/08/08 01:35:54;;;;;;;4.20;1.48;;;;;;;16.88;100.00;101428.53;5031431;28;20029;-56
2023/08/08 01:38:22;;;;;;;2.95;1.48;;;;;;;16.90;100.00;101426.66;5030234;28;20527;-58
2023/08/08 01:40:48;;;;;;;2.50;1.43;;;;;;;16.88;100.00;101425.88;5030663;28;20029;-60
2023/08/08 01:43:15;;;;;;;6.78;1.90;;;;;;;16.84;100.00;101426.97;5030199;28;21010;-64
2023/08/08 01:45:41;;;;;;;7.63;1.88;;;;;;;16.84;100.00;101429.63;5029678;28;20033;-61
2023/08/08 01:48:08;;;;;;;2.83;1.75;;;;;;;16.81;100.00;101419.13;5029268;28;20462;-64
2023/08/08 01:50:34;;;;;;;4.85;1.63;;;;;;;16.80;100.00;101414.78;5030712;28;20022;-63
2023/08/08 01:52:59;;;;;;;3.75;1.63;;;;;;;16.74;100.00;101415.06;5018740;28;20039;-63
2023/08/08 01:55:24;;;;;;;7.55;1.70;;;;;;;16.71;100.00;101417.91;5020424;28;20053;-64
2023/08/08 01:57:50;;;;;;;3.50;1.35;;;;;;;16.74;100.00;101412.41;5020507;28;20029;-64
2023/08/08 02:00:15;;;;;;;5.38;1.70;;;;;;;16.68;100.00;101411.78;5031102;28;20124;-64
2023/08/08 02:02:40;;;;;;;8.50;1.73;;;;;;;16.64;100.00;101407.56;5030615;28;20021;-66
2023/08/08 02:05:06;;;;;;;5.18;1.52;;;;;;;16.64;100.00;101412.88;5030301;28;20042;-65
2023/08/08 02:07:31;;;;;;;2.75;1.52;;;;;;;16.56;100.00;101409.75;5030812;28;20037;-63
2023/08/08 02:09:57;;;;;;;5.65;1.48;;;;;;;16.61;100.00;101401.50;5029978;28;20444;-64
2023/08/08 02:12:22;;;;;;;6.13;1.80;;;;;;;16.65;100.00;101408.44;5030399;28;20053;-55
2023/08/08 02:14:47;;;;;;;6.45;1.80;;;;;;;16.67;100.00;101399.41;5030999;28;20033;-64
2023/08/08 02:17:13;;;;;;;4.00;1.50;;;;;;;16.68;100.00;101398.47;5030280;28;20029;-65
2023/08/08 02:19:38;;;;;;;10.45;1.92;;;;;;;16.67;100.00;101396.75;5030573;28;20025;-57
2023/08/08 02:22:04;;;;;;;6.10;1.73;;;;;;;16.65;100.00;101397.78;5031118;28;20049;-65
2023/08/08 02:24:29;;;;;;;6.35;1.80;;;;;;;16.58;100.00;101401.69;5030229;28;20026;-63
2023/08/08 02:26:54;;;;;;;4.20;1.60;;;;;;;16.54;100.00;101407.16;5031009;28;20025;-64
2023/08/08 02:29:20;;;;;;;6.85;2.10;;;;;;;16.57;100.00;101407.94;5030688;28;20108;-64
2023/08/08 02:31:45;;;;;;;5.28;1.85;;;;;;;16.54;100.00;101401.84;5030305;28;20018;-56
2023/08/08 02:34:10;;;;;;;3.03;1.15;;;;;;;16.57;100.00;101408.81;5030414;28;20025;-61
2023/08/08 02:36:36;;;;;;;4.00;1.67;;;;;;;16.59;100.00;101396.31;5030223;28;20021;-60
2023/08/08 02:39:01;;;;;;;5.65;1.95;;;;;;;16.68;100.00;101401.13;5029276;28;20064;-62
2023/08/08 02:41:26;;;;;;;3.30;1.40;;;;;;;16.75;100.00;101387.53;5030089;28;20127;-57
2023/08/08 02:43:52;;;;;;;7.82;1.83;;;;;;;16.76;100.00;101392.75;5029685;28;20079;-53
2023/08/08 02:46:17;;;;;;;9.02;2.40;;;;;;;16.75;100.00;101387.53;5030311;28;20025;-63
2023/08/08 02:48:43;;;;;;;4.20;1.67;;;;;;;16.75;100.00;101390.19;5030137;28;20053;-61
2023/08/08 02:51:08;;;;;;;3.92;1.58;;;;;;;16.78;100.00;101392.69;5029739;28;20030;-64
2023/08/08 02:53:33;;;;;;;7.63;1.67;;;;;;;16.77;100.00;101386.50;5029850;28;20109;-62
2023/08/08 02:55:59;;;;;;;4.47;1.60;;;;;;;16.75;100.00;101383.06;5029222;28;20049;-65
2023/08/08 02:58:24;;;;;;;6.45;1.48;;;;;;;16.75;100.00;101388.38;5029677;28;20030;-64
2023/08/08 03:00:49;;;;;;;4.95;1.40;;;;;;;16.72;100.00;101387.66;5029721;28;20381;-57
2023/08/08 03:03:15;;;;;;;7.75;1.92;;;;;;;16.72;100.00;101387.66;5030211;28;20044;-63
2023/08/08 03:05:40;;;;;;;5.68;2.00;;;;;;;16.72;100.00;101385.00;5026090;28;20088;-64
2023/08/08 03:08:05;;;;;;;5.50;1.58;;;;;;;16.79;100.00;101378.44;5019085;28;20032;-63
2023/08/08 03:10:31;;;;;;;5.18;1.45;;;;;;;16.85;100.00;101383.44;5028968;28;20060;-59
2023/08/08 03:12:56;;;;;;;7.55;1.85;;;;;;;16.87;100.00;101383.38;5028928;28;20453;-63
2023/08/08 03:15:21;;;;;;;7.78;1.60;;;;;;;16.88;100.00;101393.94;5030056;28;20410;-64
2023/08/08 03:17:47;;;;;;;4.93;1.58;;;;;;;16.89;100.00;101384.16;5029061;28;20469;-64
2023/08/08 03:20:12;;;;;;;12.40;1.50;;;;;;;16.92;100.00;101386.66;5029589;28;20529;-58
2023/08/08 03:22:38;;;;;;;7.38;1.80;;;;;;;16.90;100.00;101386.75;5029681;28;20377;-63
2023/08/08 03:25:04;;;;;;;4.72;1.40;;;;;;;16.88;100.00;101385.94;5026593;28;20052;-63
2023/08/08 03:27:30;;;;;;;4.90;1.35;;;;;;;16.91;100.00;101382.25;5017729;28;20524;-59
2023/08/08 03:29:55;;;;;;;3.67;1.38;;;;;;;16.91;100.00;101382.25;5029495;28;20034;-64
2023/08/08 03:32:21;;;;;;;7.13;1.50;;;;;;;16.93;100.00;101377.72;5029526;28;20025;-63
2023/08/08 03:34:47;;;;;;;4.90;1.38;;;;;;;16.87;100.00;101376.25;5028385;28;20493;-62
2023/08/08 03:37:12;;;;;;;6.00;1.40;;;;;;;16.85;100.00;101370.13;5029064;28;20120;-62
2023/08/08 03:39:37;;;;;;;9.38;1.80;;;;;;;16.84;100.00;101367.56;5027779;28;20025;-62
2023/08/08 03:42:03;;;;;;;9.05;1.60;;;;;;;16.77;100.00;101367.03;5028618;28;20029;-60
2023/08/08 03:44:28;;;;;;;6.30;1.20;;;;;;;16.72;100.00;101355.75;5028224;28;20041;-62
2023/08/08 03:46:54;;;;;;;5.10;1.63;;;;;;;16.66;100.00;101357.81;5028828;28;20064;-59
2023/08/08 03:49:19;;;;;;;4.80;1.67;;;;;;;16.55;100.00;101354.81;5029463;28;20021;-63
2023/08/08 03:51:44;;;;;;;6.53;1.40;;;;;;;16.46;100.00;101357.97;5028406;28;20438;-62
2023/08/08 03:54:10;;;;;;;3.55;1.48;;;;;;;16.36;100.00;101361.06;5028120;28;20060;-61
2023/08/08 03:56:35;;;;;;;2.38;1.30;;;;;;;16.34;100.00;101357.63;5029075;28;20467;-56
2023/08/08 03:59:00;;;;;;;6.70;1.40;;;;;;;16.28;100.00;101355.25;5028502;28;20036;-64
2023/08/08 04:01:26;;;;;;;5.07;1.40;;;;;;;16.32;100.00;101364.84;5029103;28;20021;-63
2023/08/08 04:03:51;;;;;;;6.05;1.45;;;;;;;16.31;100.00;101360.44;5027875;28;20028;-63
2023/08/08 04:06:16;;;;;;;6.72;1.20;;;;;;;16.36;100.00;101353.09;5027669;28;20051;-63
2023/08/08 04:08:42;;;;;;;3.75;1.45;;;;;;;16.37;100.00;101353.94;5027529;28;20454;-63
2023/08/08 04:11:07;;;;;;;4.03;1.20;;;;;;;16.23;100.00;101350.19;5026090;28;20045;-65
2023/08/08 04:13:33;;;;;;;2.97;0.93;;;;;;;16.33;100.00;101361.22;5028784;28;20143;-64
2023/08/08 04:15:58;;;;;;;5.40;1.08;;;;;;;16.36;100.00;101354.88;5027486;28;20120;-63
2023/08/08 04:18:24;;;;;;;5.28;1.10;;;;;;;16.34;100.00;101356.78;5028458;28;20063;-65
2023/08/08 04:20:49;;;;;;;3.50;1.00;;;;;;;16.36;100.00;101350.44;5029221;28;20025;-64
2023/08/08 04:23:15;;;;;;;2.53;1.10;;;;;;;16.33;100.00;101353.25;5027457;28;20026;-61
2023/08/08 04:25:40;;;;;;;4.57;1.23;;;;;;;16.33;100.00;101355.03;5027265;28;20033;-65
2023/08/08 04:28:05;;;;;;;1.88;1.20;;;;;;;16.25;100.00;101350.09;5028034;28;20037;-63
2023/08/08 04:30:31;;;;;;;5.47;1.05;;;;;;;16.13;100.00;101352.44;5027179;28;20453;-64
2023/08/08 04:32:56;;;;;;;4.25;1.40;;;;;;;16.05;100.00;101357.28;5027520;28;20034;-61
2023/08/08 04:35:22;;;;;;;6.80;1.70;;;;;;;16.04;100.00;101356.41;5028148;28;20607;-63
2023/08/08 04:37:47;;;;;;;4.13;1.27;;;;;;;16.04;100.00;101353.75;5027999;28;20045;-64
2023/08/08 04:40:12;;;;;;;6.65;1.20;;;;;;;16.03;100.00;101357.34;5020554;28;20029;-63
2023/08/08 04:42:38;;;;;;;4.32;1.25;;;;;;;16.00;100.00;101356.63;5025639;28;20124;-62
2023/08/08 04:45:04;;;;;;;5.43;1.25;;;;;;;15.96;100.00;101360.34;5026918;28;20035;-64
2023/08/08 04:47:30;;;;;;;7.07;1.48;;;;;;;15.95;100.00;101362.13;5016993;28;20025;-59
2023/08/08 04:49:55;;;;;;;3.83;1.30;;;;;;;15.92;100.00;101359.63;5018591;28;20025;-62
2023/08/08 04:52:20;;;;;;;3.97;1.30;;;;;;;15.90;100.00;101365.00;5016995;28;20547;-60
2023/08/08 04:54:46;;;;;;;5.00;1.05;;;;;;;15.96;100.00;101363.00;5015616;28;20064;-63
2023/08/08 04:57:11;;;;;;;3.00;1.23;;;;;;;16.08;100.00;101373.09;5016602;28;20700;-61
2023/08/08 04:59:36;;;;;;;2.97;1.20;;;;;;;16.18;100.00;101362.84;5024751;28;20072;-64
2023/08/08 05:02:02;;;;;;;4.15;1.20;;;;;;;16.25;100.00;101368.72;5025963;28;20082;-65
2023/08/08 05:04:27;;;;;;;7.32;1.42;;;;;;;16.26;100.00;101368.63;5025680;28;20042;-64
2023/08/08 05:06:53;;;;;;;4.20;1.30;;;;;;;16.28;100.00;101368.56;5025525;28;20021;-62
2023/08/08 05:09:20;;;;;;;4.78;1.40;;;;;;;16.32;100.00;101364.84;5026638;28;20457;-64
2023/08/08 05:11:46;;;;;;;7.50;1.65;;;;;;;16.28;100.00;101364.13;5025719;28;20036;-66
2023/08/08 05:14:11;;;;;;;4.32;1.50;;;;;;;16.30;100.00;101366.69;5026375;28;20025;-62
2023/08/08 05:16:37;;;;;;;4.38;1.42;;;;;;;16.26;100.00;101362.47;5021038;28;20045;-64
2023/08/08 05:19:03;;;;;;;5.43;1.13;;;;;;;16.28;100.00;101368.56;5026501;28;20184;-63
2023/08/08 05:21:28;;;;;;;4.78;1.10;;;;;;;16.30;100.00;101369.34;5025827;28;20105;-63
2023/08/08 05:23:54;;;;;;;3.78;1.15;;;;;;;16.34;100.00;101372.72;5024345;28;20022;-64
2023/08/08 05:26:19;;;;;;;5.97;1.20;;;;;;;16.34;100.00;101368.25;5025988;28;20025;-62
2023/08/08 05:28:45;;;;;;;4.15;1.38;;;;;;;16.40;100.00;101377.72;5026585;28;20120;-60
2023/08/08 05:31:10;;;;;;;4.90;1.13;;;;;;;16.40;100.00;101377.72;5026710;28;20021;-62
2023/08/08 05:33:35;;;;;;;3.72;1.23;;;;;;;16.47;100.00;101372.97;5026992;28;20457;-61
2023/08/08 05:36:01;;;;;;;9.70;1.95;;;;;;;16.49;100.00;101366.63;5026996;28;20032;-62
2023/08/08 05:38:26;;;;;;;3.17;1.30;;;;;;;16.53;100.00;101368.19;5026818;28;20030;-64
2023/08/08 05:40:51;;;;;;;6.40;1.25;;;;;;;16.52;100.00;101365.59;5025458;28;20366;-62
2023/08/08 05:43:18;;;;;;;4.90;1.20;;;;;;;16.59;100.00;101371.50;5024914;28;20029;-62
2023/08/08 05:45:44;;;;;;;1.48;0.95;;;;;;;16.59;100.00;101382.13;5025478;28;20033;-64
2023/08/08 05:48:11;;;;;;;3.85;1.50;;;;;;;16.60;100.00;101379.38;5025857;28;20026;-61
2023/08/08 05:50:38;;;;;;;2.60;0.95;;;;;;;16.65;100.00;101382.66;5026644;28;20218;-64
2023/08/08 05:53:03;;;;;;;7.13;1.50;;;;;;;16.67;100.00;101386.13;5027314;28;20025;-65
2023/08/08 05:55:28;;;;;;;4.75;1.10;;;;;;;16.70;100.00;101387.75;5025888;28;20034;-63
2023/08/08 05:57:54;;;;;;;8.40;0.80;;;;;;;16.68;100.00;101382.50;5027629;28;20025;-58
2023/08/08 06:00:19;;;;;;;2.60;0.90;;;;;;;16.83;100.00;101385.34;5023129;28;20079;-62
2023/08/08 06:02:45;;;;;;;4.90;1.20;;;;;;;16.84;100.00;101392.38;5009908;28;20037;-63
2023/08/08 06:05:11;;;;;;;4.53;1.00;;;;;;;16.86;100.00;101385.16;5009631;28;20092;-62
2023/08/08 06:07:36;;;;;;;2.20;1.00;;;;;;;16.95;100.00;101393.63;5011576;28;20038;-63
2023/08/08 06:10:02;;;;;;;4.10;1.15;;;;;;;17.01;100.00;101393.31;5024643;28;20025;-65
2023/08/08 06:12:27;;;;;;;2.80;1.00;;;;;;;17.06;100.00;101391.25;5022686;28;20051;-64
2023/08/08 06:14:53;;;;;;;6.25;1.52;;;;;;;17.10;100.00;101392.81;5017994;28;20398;-61
2023/08/08 06:17:18;;;;;;;3.72;0.73;;;;;;;17.15;100.00;101393.47;5010322;28;20053;-65
2023/08/08 06:19:44;;;;;;;4.13;1.00;;;;;;;17.14;100.00;101393.53;5016764;28;20490;-65
2023/08/08 06:22:09;;;;;;;3.55;0.73;;;;;;;17.24;100.00;101388.56;5010703;28;20390;-58
2023/08/08 06:24:34;;;;;;;2.15;1.00;;;;;;;17.30;100.00;101398.91;5008472;28;20089;-66
2023/08/08 06:27:00;;;;;;;5.15;0.80;;;;;;;17.39;100.00;101394.88;5009133;28;20041;-68
2023/08/08 06:29:25;;;;;;;3.28;0.90;;;;;;;17.52;100.00;101398.59;5020321;28;20022;-65
2023/08/08 06:31:50;;;;;;;7.07;1.10;;;;;;;17.60;100.00;101390.19;5015449;28;20041;-63
2023/08/08 06:34:16;;;;;;;1.17;0.80;;;;;;;17.48;100.00;101391.72;5028246;28;20465;-66
2023/08/08 06:36:41;;;;;;;3.38;0.90;;;;;;;17.45;100.00;101405.19;5027681;28;20841;-64
2023/08/08 06:39:06;;;;;;;1.88;0.90;;;;;;;17.51;100.00;101390.69;5027706;28;20478;-65
2023/08/08 06:41:32;;;;;;;4.47;1.15;;;;;;;17.39;100.00;101392.22;5028687;28;20520;-61
2023/08/08 06:43:58;;;;;;;6.20;1.10;;;;;;;17.54;100.00;101406.50;5028709;28;20525;-66
2023/08/08 06:46:24;;;;;;;1.73;0.70;;;;;;;17.46;100.00;101398.91;5029484;28;20106;-63
2023/08/08 06:48:50;;;;;;;1.80;1.13;;;;;;;17.59;100.00;101387.59;5029826;28;20358;-68
2023/08/08 06:51:15;;;;;;;2.97;0.80;;;;;;;17.73;100.00;101389.53;5028494;28;20067;-66
2023/08/08 06:53:41;;;;;;;3.85;0.70;;;;;;;17.84;100.00;101386.22;5027684;28;20084;-59
2023/08/08 06:56:06;;;;;;;4.57;1.00;;;;;;;17.88;100.00;101391.31;5028499;28;20030;-65
2023/08/08 06:58:31;;;;;;;3.72;0.73;;;;;;;18.00;100.00;101386.25;5027651;28;20569;-64
2023/08/08 07:00:57;;;;;;;5.60;1.10;;;;;;;17.91;100.00;101387.63;5026850;28;20029;-62
2023/08/08 07:03:22;;;;;;;2.40;0.80;;;;;;;17.99;100.00;101392.50;5027737;28;20022;-54
2023/08/08 07:05:51;;;;;;;1.50;0.90;;;;;;;18.12;100.00;101392.72;5028224;28;20037;-63
2023/08/08 07:08:17;;;;;;;3.78;1.05;;;;;;;18.15;100.00;101389.88;5026365;28;20040;-64
2023/08/08 07:10:43;;;;;;;1.50;0.70;;;;;;;18.06;99.58;101391.19;5027807;28;20109;-64
2023/08/08 07:13:08;;;;;;;2.15;0.70;;;;;;;17.94;100.00;101390.09;5028045;28;20456;-63
2023/08/08 07:15:34;;;;;;;3.38;0.70;;;;;;;18.07;100.00;101411.63;5026940;28;20025;-63
2023/08/08 07:17:59;;;;;;;5.93;0.95;;;;;;;18.19;100.00;101397.59;5027519;28;20144;-61
2023/08/08 07:20:25;;;;;;;4.40;0.82;;;;;;;18.24;98.69;101394.66;5027617;28;20028;-63
2023/08/08 07:22:50;;;;;;;5.15;0.80;;;;;;;18.18;97.97;101393.22;5027570;28;20029;-63
2023/08/08 07:25:16;;;;;;;4.13;0.70;;;;;;;18.27;97.73;101405.16;5027350;28;20030;-66
2023/08/08 07:27:41;;;;;;;3.78;1.23;;;;;;;18.39;96.56;101386.75;5027316;28;20029;-63
2023/08/08 07:30:07;;;;;;;3.00;0.70;;;;;;;18.63;95.37;101400.41;5026262;28;20052;-64
2023/08/08 07:32:33;;;;;;;3.85;0.90;;;;;;;18.63;93.47;101380.91;5025933;28;20148;-61
2023/08/08 07:35:01;;;;;;;1.58;0.80;;;;;;;18.72;95.02;101384.81;5026555;28;20523;-63
2023/08/08 07:37:26;;;;;;;2.00;0.68;;;;;;;18.75;96.17;101371.31;5026479;28;20508;-66
2023/08/08 07:39:52;;;;;;;2.38;1.13;;;;;;;18.65;96.27;101361.16;5024991;28;20029;-63
2023/08/08 07:42:17;;;;;;;3.10;0.90;;;;;;;18.63;97.19;101373.72;5027438;28;20460;-64
2023/08/08 07:44:42;;;;;;;1.70;0.82;;;;;;;18.63;95.99;101388.91;5025929;28;20029;-65
2023/08/08 07:47:08;;;;;;;1.55;0.70;;;;;;;18.55;95.61;101368.00;5027468;28;20033;-65
2023/08/08 07:49:33;;;;;;;1.98;0.85;;;;;;;18.53;97.92;101385.91;5027301;28;20092;-64
2023/08/08 07:51:59;;;;;;;2.55;0.77;;;;;;;18.51;97.32;101395.84;5026665;28;20603;-65
2023/08/08 07:54:24;;;;;;;3.28;0.80;;;;;;;18.43;96.57;101372.25;5027458;28;20462;-66
2023/08/08 07:56:49;;;;;;;3.83;0.98;;;;;;;18.37;98.65;101378.81;5027746;28;20032;-56
2023/08/08 07:59:16;;;;;;;2.53;1.00;;;;;;;18.49;99.06;101371.03;5027350;28;20025;-61
2023/08/08 08:01:41;;;;;;;3.95;0.82;;;;;;;18.51;98.33;101379.81;5025645;28;20029;-67
2023/08/08 08:04:06;;;;;;;3.53;0.82;;;;;;;18.59;98.06;101380.22;5026959;28;20390;-57
2023/08/08 08:06:32;;;;;;;1.85;0.65;;;;;;;18.65;98.42;101370.97;5025269;28;20048;-59
2023/08/08 08:08:58;;;;;;;4.15;0.95;;;;;;;18.57;96.67;101371.44;5026675;28;20102;-65
2023/08/08 08:11:23;;;;;;;1.70;0.90;;;;;;;18.69;95.09;101381.38;5019240;28;20022;-60
2023/08/08 08:13:49;;;;;;;2.53;0.90;;;;;;;18.89;96.28;101383.78;5009256;28;20482;-64
2023/08/08 08:16:15;;;;;;;2.83;0.88;;;;;;;19.06;91.24;101390.78;5022837;28;20061;-64
2023/08/08 08:18:40;;;;;;;3.65;0.90;;;;;;;19.16;93.48;101391.97;5007549;28;20497;-59
2023/08/08 08:21:05;;;;;;;1.35;0.82;;;;;;;19.31;93.35;101378.59;5008064;28;20036;-63
2023/08/08 08:23:32;;;;;;;4.68;0.80;;;;;;;19.15;94.06;101384.88;5014486;28;20057;-66
2023/08/08 08:25:57;;;;;;;4.53;1.02;;;;;;;19.24;93.03;101385.28;5015327;28;20025;-63
2023/08/08 08:28:23;;;;;;;2.20;0.65;;;;;;;19.26;91.92;101372.72;5028146;28;20060;-63
2023/08/08 08:30:49;;;;;;;3.05;0.80;;;;;;;19.31;92.61;101373.25;5029061;28;20026;-66
2023/08/08 08:33:14;;;;;;;1.40;0.68;;;;;;;19.29;90.16;101375.16;5028844;28;20388;-63
2023/08/08 08:35:40;;;;;;;1.65;0.90;;;;;;;19.38;92.75;101385.28;5027750;28;20025;-65
2023/08/08 08:38:06;;;;;;;3.30;0.80;;;;;;;19.29;93.11;101385.84;5026022;28;20036;-65
2023/08/08 08:40:37;;;;;;;2.03;0.77;;;;;;;19.34;93.95;101388.22;5026586;28;20095;-61
2023/08/08 08:43:03;;;;;;;1.42;0.70;;;;;;;19.42;94.02;101380.59;5026649;28;20032;-64
2023/08/08 08:45:29;;;;;;;3.67;1.02;;;;;;;19.41;90.22;101385.09;5024102;28;20029;-67
2023/08/08 08:47:56;;;;;;;4.00;0.75;;;;;;;19.40;90.44;101383.38;5026173;28;20091;-59
2023/08/08 08:50:22;;;;;;;3.33;0.90;;;;;;;19.51;89.47;101385.34;5027367;28;20022;-64
2023/08/08 08:52:47;;;;;;;7.63;1.00;;;;;;;19.61;90.82;101395.47;5027497;28;20034;-65
2023/08/08 08:55:12;;;;;;;2.88;1.00;;;;;;;19.85;91.07;101378.81;5025857;28;20034;-64
2023/08/08 08:57:38;;;;;;;3.78;1.02;;;;;;;20.02;91.77;101389.28;5025245;28;20044;-60
2023/08/08 09:00:05;;;;;;;2.22;0.90;;;;;;;20.13;89.17;101385.91;5025621;28;20473;-61
2023/08/08 09:02:31;;;;;;;4.60;1.17;;;;;;;19.69;88.59;101393.19;5027105;28;20049;-65
2023/08/08 09:04:57;;;;;;;3.10;0.85;;;;;;;19.55;88.43;101383.34;5026010;28;20466;-66
2023/08/08 09:07:26;;;;;;;4.25;0.90;;;;;;;19.65;87.49;101388.97;5024594;28;20112;-61
2023/08/08 09:09:52;;;;;;;3.13;0.75;;;;;;;19.69;89.32;101418.06;5026357;28;20702;-61
2023/08/08 09:12:17;;;;;;;6.32;0.82;;;;;;;19.65;88.99;101418.34;5026953;28;20109;-65
2023/08/08 09:14:43;;;;;;;3.60;1.00;;;;;;;19.79;87.96;101388.09;5027154;28;20033;-65
2023/08/08 09:17:12;;;;;;;1.50;0.80;;;;;;;19.82;85.54;101414.63;5026761;28;20083;-61
2023/08/08 09:19:38;;;;;;;5.35;0.63;;;;;;;19.84;83.76;101394.00;5018010;28;20530;-65
2023/08/08 09:22:04;;;;;;;2.50;0.68;;;;;;;19.93;86.13;101409.44;5018312;28;20021;-63
2023/08/08 09:24:29;;;;;;;2.78;0.85;;;;;;;19.86;86.71;101418.81;5016493;28;20514;-60
2023/08/08 09:26:55;;;;;;;1.55;0.80;;;;;;;19.72;86.30;101401.00;5020984;28;20140;-64
2023/08/08 09:29:20;;;;;;;4.03;0.80;;;;;;;19.91;85.33;101395.31;5026351;28;20376;-62
2023/08/08 09:31:47;;;;;;;0.82;0.80;;;;;;;20.04;84.75;101403.41;5023348;28;20040;-61
2023/08/08 09:34:12;;;;;;;4.13;0.90;;;;;;;19.99;85.34;101413.56;5020719;28;20034;-58
2023/08/08 09:36:38;;;;;;;1.63;0.60;;;;;;;19.86;83.65;101397.41;5016028;28;20034;-61
2023/08/08 09:39:04;;;;;;;3.33;0.80;;;;;;;20.13;85.51;101399.28;5017408;28;20029;-62
2023/08/08 09:41:30;;;;;;;3.53;0.88;;;;;;;20.17;86.45;101398.13;5021372;28;20028;-61
2023/08/08 09:43:55;;;;;;;1.67;0.63;;;;;;;20.23;85.20;101407.59;5021245;28;20417;-62
2023/08/08 09:46:21;;;;;;;4.25;0.80;;;;;;;20.11;86.35;101398.53;5021486;28;20026;-62
2023/08/08 09:48:47;;;;;;;1.20;0.90;;;;;;;19.95;84.36;101415.56;5019313;28;20052;-62
2023/08/08 09:51:13;;;;;;;2.45;0.90;;;;;;;19.88;87.06;101414.22;5021955;28;20452;-59
2023/08/08 09:53:39;;;;;;;4.18;0.90;;;;;;;19.82;89.20;101410.16;5019296;28;20026;-60
2023/08/08 09:56:05;;;;;;;1.92;1.10;;;;;;;20.09;89.31;101397.78;5022441;28;20021;-58
2023/08/08 09:58:31;;;;;;;1.75;0.88;;;;;;;20.26;86.69;101395.81;5030455;28;20397;-63
2023/08/08 10:00:56;;;;;;;2.45;0.90;;;;;;;20.01;86.66;101418.81;5020212;28;20030;-63
2023/08/08 10:03:22;;;;;;;1.20;0.75;;;;;;;20.05;87.65;101407.81;5024523;28;20033;-61
2023/08/08 10:05:47;;;;;;;3.10;0.88;;;;;;;20.11;87.53;101406.56;5020759;28;20128;-60
2023/08/08 10:08:15;;;;;;;5.60;1.00;;;;;;;20.35;85.30;101397.88;5025955;28;20033;-62
2023/08/08 10:10:41;;;;;;;2.28;0.88;;;;;;;20.45;81.88;101420.38;5023233;28;20128;-63
2023/08/08 10:13:06;;;;;;;5.70;0.93;;;;;;;20.40;81.26;101416.28;5028062;28;20535;-61
2023/08/08 10:15:32;;;;;;;1.52;0.80;;;;;;;20.86;84.10;101406.09;5028069;28;20029;-61
2023/08/08 10:17:58;;;;;;;2.40;1.00;;;;;;;20.96;82.53;101405.38;5024271;28;20469;-58
2023/08/08 10:20:26;;;;;;;1.85;0.98;;;;;;;20.96;80.20;101408.03;5023910;28;20025;-63
2023/08/08 10:22:54;;;;;;;1.95;0.80;;;;;;;20.93;80.47;101423.50;5033313;28;20121;-57
2023/08/08 10:25:19;;;;;;;3.55;0.82;;;;;;;20.89;82.16;101403.22;5019726;28;20030;-61
2023/08/08 10:27:45;;;;;;;1.58;0.80;;;;;;;20.75;80.46;101399.66;5021010;28;20088;-54
2023/08/08 10:30:12;;;;;;;1.38;0.70;;;;;;;20.76;76.83;101421.94;5018935;28;20026;-61
2023/08/08 10:32:41;;;;;;;4.82;0.80;;;;;;;20.70;76.03;101424.06;5020909;28;20029;-56
2023/08/08 10:35:07;;;;;;;;;;;;;;;20.78;76.15;101428.03;5023391;28;20025;-62
2023/08/08 10:37:33;;;;;;;2.90;0.73;;;;;;;20.82;76.51;101408.13;5028733;28;19921;-61
2023/08/08 10:39:59;;;;;;;4.40;0.88;;;;;;;20.79;78.56;101438.66;5027335;28;20026;-58
2023/08/08 10:42:27;;;;;;;4.07;0.90;;;;;;;20.64;80.57;101411.09;5029244;28;20057;-63
2023/08/08 10:44:54;;;;;;;3.88;0.80;;;;;;;20.73;80.92;101409.63;5029812;28;20025;-56
2023/08/08 10:47:23;;;;;;;2.58;1.00;;;;;;;21.05;81.55;101406.59;5029081;28;20083;-53
2023/08/08 10:50:04;;;;;;;4.57;1.00;;;;;;;21.21;80.87;101414.41;5029710;28;20090;-63
2023/08/08 10:52:30;;;;;;;3.13;1.02;;;;;;;21.26;81.53;101415.88;5013904;28;20385;-59
2023/08/08 10:54:55;;;;;;;1.65;0.88;;;;;;;21.05;82.27;101413.75;5012769;28;20026;-61
2023/08/08 10:57:24;;;;;;;3.50;1.02;;;;;;;20.94;82.16;101414.47;5014565;28;20061;-61
2023/08/08 10:59:50;;;;;;;6.25;1.17;;;;;;;21.37;82.56;101407.94;5014097;28;20030;-59
2023/08/08 11:02:15;;;;;;;2.13;0.90;;;;;;;21.65;80.26;101416.69;5018780;28;20524;-62
2023/08/08 11:04:41;;;;;;;2.72;0.80;;;;;;;21.58;79.53;101410.91;5026962;28;20102;-58
2023/08/08 11:07:06;;;;;;;2.80;1.10;;;;;;;21.50;79.72;101407.06;5027408;28;20029;-62
2023/08/08 11:09:32;;;;;;;5.28;1.10;;;;;;;21.45;80.21;101415.44;5022881;28;20037;-60
2023/08/08 11:11:57;;;;;;;2.58;1.00;;;;;;;21.43;80.82;101430.78;5034207;28;20164;-59
2023/08/08 11:14:23;;;;;;;1.23;0.77;;;;;;;21.37;80.60;101404.41;5025174;28;20036;-58